Time;durP1;ratioP1;P1;durP2;ratioP2;P2;SDS_P1;SDS_P2;PMS_P1;PMS_P2;Temp;Humidity;BMP_temperature;BMP_pressure;BME280_temperature;BME280_humidity;BME280_pressure;Samples;Min_cycle;Max_cycle;Signal;HPM_P1;HPM_P2
2023/09/19 00:01:20;;;;;;;2.00;1.90;;;16.00;99.90;;;;;;467103;253;28865;-72
2023/09/19 00:03:22;;;;;;;2.63;1.97;;;16.00;99.90;;;;;;467122;253;28890;-73
2023/09/19 00:05:23;;;;;;;4.70;2.10;;;16.00;99.90;;;;;;467093;254;28870;-71
2023/09/19 00:07:24;;;;;;;2.20;2.00;;;16.00;99.90;;;;;;467106;253;28879;-72
2023/09/19 00:09:28;;;;;;;3.40;2.00;;;16.10;99.90;;;;;;467113;253;28918;-74
2023/09/19 00:11:29;;;;;;;2.10;1.80;;;16.00;99.90;;;;;;467142;254;28963;-73
2023/09/19 00:13:30;;;;;;;2.60;2.30;;;16.00;99.90;;;;;;467145;253;28940;-71
2023/09/19 00:15:33;;;;;;;2.47;2.27;;;16.10;99.90;;;;;;467137;254;28916;-71
2023/09/19 00:17:34;;;;;;;3.20;2.00;;;16.00;99.90;;;;;;467061;254;28878;-71
2023/09/19 00:19:34;;;;;;;4.70;2.17;;;16.00;99.90;;;;;;467071;249;28942;-72
2023/09/19 00:21:37;;;;;;;5.73;2.63;;;16.10;99.90;;;;;;467163;253;29043;-72
2023/09/19 00:23:37;;;;;;;2.33;1.90;;;16.10;99.90;;;;;;467042;254;28826;-71
2023/09/19 00:25:38;;;;;;;7.40;2.40;;;16.00;99.90;;;;;;467130;253;29353;-71
2023/09/19 00:27:43;;;;;;;3.40;2.33;;;16.10;99.90;;;;;;467108;253;30168;-71
2023/09/19 00:29:43;;;;;;;5.50;2.50;;;16.00;99.90;;;;;;467156;254;29320;-74
2023/09/19 00:31:44;;;;;;;3.80;2.40;;;16.00;99.90;;;;;;467190;253;28946;-71
2023/09/19 00:33:46;;;;;;;2.47;2.00;;;16.00;99.90;;;;;;467168;254;28871;-71
2023/09/19 00:35:47;;;;;;;3.73;2.07;;;16.00;99.90;;;;;;467173;253;28902;-71
2023/09/19 00:37:48;;;;;;;2.80;2.27;;;16.10;99.90;;;;;;467127;253;28904;-72
2023/09/19 00:39:49;;;;;;;3.70;1.87;;;16.10;99.90;;;;;;467167;253;29442;-73
2023/09/19 00:41:51;;;;;;;5.87;2.37;;;16.10;99.90;;;;;;467155;253;29314;-71
2023/09/19 00:43:52;;;;;;;4.83;2.13;;;16.00;99.90;;;;;;467152;253;29343;-72
2023/09/19 00:45:54;;;;;;;3.63;2.23;;;16.00;99.90;;;;;;467135;253;30171;-71
2023/09/19 00:47:54;;;;;;;6.00;2.60;;;16.00;99.90;;;;;;467130;253;28853;-72
2023/09/19 00:49:56;;;;;;;2.57;2.37;;;16.00;99.90;;;;;;467163;249;28896;-73
2023/09/19 00:51:57;;;;;;;6.37;2.40;;;16.10;99.90;;;;;;467158;253;28930;-71
2023/09/19 00:53:59;;;;;;;3.37;2.50;;;16.00;99.90;;;;;;467123;253;28856;-71
2023/09/19 00:55:59;;;;;;;4.47;2.53;;;16.00;99.90;;;;;;467157;253;29293;-71
2023/09/19 00:58:01;;;;;;;3.77;2.17;;;16.10;99.90;;;;;;467145;254;28859;-72
2023/09/19 01:00:06;;;;;;;4.93;2.43;;;16.00;99.90;;;;;;467140;253;28872;-72
2023/09/19 01:02:06;;;;;;;3.30;2.83;;;16.10;99.90;;;;;;467082;254;28975;-71
2023/09/19 01:04:07;;;;;;;3.20;2.70;;;16.00;99.90;;;;;;467129;253;28821;-71
2023/09/19 01:06:09;;;;;;;4.70;2.53;;;16.00;99.90;;;;;;467137;253;29341;-71
2023/09/19 01:08:11;;;;;;;4.23;2.47;;;15.90;99.90;;;;;;467160;254;29406;-72
2023/09/19 01:10:11;;;;;;;2.97;2.30;;;16.00;99.90;;;;;;467105;253;29272;-71
2023/09/19 01:12:12;;;;;;;5.13;2.33;;;15.90;99.90;;;;;;467116;253;28876;-71
2023/09/19 01:14:14;;;;;;;5.73;2.63;;;16.00;99.90;;;;;;467154;253;28900;-71
2023/09/19 01:16:15;;;;;;;4.23;2.70;;;16.00;99.90;;;;;;467145;254;28816;-71
2023/09/19 01:18:16;;;;;;;3.17;2.60;;;16.00;99.90;;;;;;467147;253;28864;-72
2023/09/19 01:20:17;;;;;;;3.30;2.90;;;16.00;99.90;;;;;;467134;254;28928;-71
2023/09/19 01:22:19;;;;;;;3.67;2.77;;;16.00;99.90;;;;;;467124;254;28876;-72
2023/09/19 01:24:20;;;;;;;3.23;2.60;;;16.00;99.90;;;;;;467159;249;28880;-73
2023/09/19 01:26:21;;;;;;;2.33;2.13;;;15.90;99.90;;;;;;467131;253;28836;-71
2023/09/19 01:28:22;;;;;;;3.23;2.73;;;15.90;99.90;;;;;;467144;253;28858;-72
2023/09/19 01:30:24;;;;;;;3.00;2.60;;;15.90;99.90;;;;;;467131;254;29336;-72
2023/09/19 01:32:25;;;;;;;4.30;2.90;;;15.90;99.90;;;;;;467106;253;29312;-71
2023/09/19 01:34:26;;;;;;;5.30;3.17;;;15.90;99.90;;;;;;467073;254;29350;-72
2023/09/19 01:36:28;;;;;;;5.60;2.97;;;15.90;99.90;;;;;;467131;254;28844;-71
2023/09/19 01:38:29;;;;;;;5.53;2.77;;;15.90;99.90;;;;;;467096;253;28872;-71
2023/09/19 01:40:30;;;;;;;4.03;2.20;;;15.90;99.90;;;;;;467128;254;28930;-71
2023/09/19 01:42:31;;;;;;;6.70;2.30;;;15.90;99.90;;;;;;467165;253;28929;-71
2023/09/19 01:44:32;;;;;;;7.97;2.73;;;15.80;99.90;;;;;;467139;253;28920;-72
2023/09/19 01:46:37;;;;;;;6.10;2.50;;;15.80;99.90;;;;;;467143;253;28964;-71
2023/09/19 01:48:35;;;;;;;4.43;2.63;;;15.70;99.90;;;;;;466801;254;28867;-71
2023/09/19 01:50:40;;;;;;;3.13;2.20;;;15.70;99.90;;;;;;467146;253;29308;-74
2023/09/19 01:52:37;;;;;;;4.33;2.10;;;15.70;99.90;;;;;;466923;254;28832;-71
2023/09/19 01:54:40;;;;;;;3.80;2.77;;;15.70;99.90;;;;;;467140;253;29458;-71
2023/09/19 01:56:40;;;;;;;3.07;2.77;;;15.60;99.90;;;;;;467106;254;29297;-71
2023/09/19 01:58:42;;;;;;;4.80;2.53;;;15.60;99.90;;;;;;467137;253;29342;-71
2023/09/19 02:00:42;;;;;;;2.97;2.70;;;15.70;99.90;;;;;;467111;254;29323;-72
2023/09/19 02:02:44;;;;;;;2.40;2.20;;;15.60;99.90;;;;;;467141;253;28871;-71
2023/09/19 02:04:45;;;;;;;5.20;2.60;;;15.60;99.90;;;;;;467140;253;28921;-72
2023/09/19 02:06:50;;;;;;;2.50;2.30;;;15.60;99.90;;;;;;467134;253;28935;-72
2023/09/19 02:08:47;;;;;;;4.73;2.40;;;15.60;99.90;;;;;;466792;254;28844;-72
2023/09/19 02:10:49;;;;;;;6.30;2.80;;;15.60;99.90;;;;;;467112;253;28930;-72
2023/09/19 02:12:50;;;;;;;2.60;2.40;;;15.60;99.90;;;;;;467119;253;28904;-71
2023/09/19 02:14:51;;;;;;;3.90;2.67;;;15.60;99.90;;;;;;467105;250;28931;-71
2023/09/19 02:16:53;;;;;;;2.90;2.60;;;15.60;99.90;;;;;;467131;249;28977;-71
2023/09/19 02:18:54;;;;;;;3.10;2.60;;;15.60;99.90;;;;;;467138;253;28919;-71
2023/09/19 02:20:56;;;;;;;2.60;2.37;;;15.50;99.90;;;;;;467156;253;29379;-72
2023/09/19 02:22:56;;;;;;;9.50;3.40;;;15.50;99.90;;;;;;467144;253;29335;-71
2023/09/19 02:25:00;;;;;;;7.97;2.70;;;15.40;99.90;;;;;;467142;253;29361;-71
2023/09/19 02:27:03;;;;;;;3.23;2.50;;;15.40;99.90;;;;;;466994;254;28880;-72
2023/09/19 02:29:01;;;;;;;3.70;2.97;;;15.50;99.90;;;;;;466873;254;28880;-71
2023/09/19 02:31:01;;;;;;;2.87;2.50;;;15.50;99.90;;;;;;467104;253;28960;-71
2023/09/19 02:33:06;;;;;;;3.60;2.53;;;15.50;99.90;;;;;;467116;253;28832;-71
2023/09/19 02:35:04;;;;;;;4.70;2.43;;;15.50;99.90;;;;;;466791;254;28864;-72
2023/09/19 02:37:05;;;;;;;3.30;3.00;;;15.50;99.90;;;;;;467152;253;28908;-72
2023/09/19 02:39:08;;;;;;;6.07;3.03;;;15.40;99.90;;;;;;467144;253;28932;-71
2023/09/19 02:41:08;;;;;;;3.60;3.07;;;15.30;99.90;;;;;;467077;254;28943;-71
2023/09/19 02:43:09;;;;;;;4.47;3.17;;;15.40;99.90;;;;;;467118;253;28844;-71
2023/09/19 02:45:11;;;;;;;7.60;2.90;;;15.30;99.90;;;;;;467125;254;29282;-71
2023/09/19 02:47:11;;;;;;;2.80;2.37;;;15.20;99.90;;;;;;467114;254;29433;-72
2023/09/19 02:49:13;;;;;;;8.30;3.30;;;15.10;99.90;;;;;;467130;253;29299;-71
2023/09/19 02:51:14;;;;;;;5.90;3.30;;;15.10;99.90;;;;;;467127;253;29341;-71
2023/09/19 02:53:15;;;;;;;2.80;2.03;;;15.10;99.90;;;;;;467125;254;29006;-73
2023/09/19 02:55:21;;;;;;;8.47;2.97;;;15.10;99.90;;;;;;467155;253;28937;-71
2023/09/19 02:57:19;;;;;;;4.20;3.00;;;15.10;99.90;;;;;;466728;254;28961;-72
2023/09/19 02:59:19;;;;;;;5.40;2.50;;;15.00;99.90;;;;;;467094;253;28908;-71
2023/09/19 03:01:20;;;;;;;6.80;2.90;;;15.10;99.90;;;;;;467175;253;29078;-72
2023/09/19 03:03:21;;;;;;;4.13;2.73;;;15.00;99.90;;;;;;467211;253;29001;-72
2023/09/19 03:05:23;;;;;;;6.73;2.93;;;15.10;99.90;;;;;;467172;253;28936;-71
2023/09/19 03:07:25;;;;;;;9.63;3.10;;;15.00;99.90;;;;;;467085;249;28955;-72
2023/09/19 03:09:25;;;;;;;4.33;2.73;;;15.00;99.90;;;;;;467151;253;28847;-71
2023/09/19 03:11:26;;;;;;;3.70;2.50;;;15.10;99.90;;;;;;467175;253;29491;-71
2023/09/19 03:13:30;;;;;;;4.43;2.53;;;15.00;99.90;;;;;;467181;254;29355;-72
2023/09/19 03:15:29;;;;;;;14.97;3.40;;;15.00;99.90;;;;;;467050;253;29399;-71
2023/09/19 03:17:30;;;;;;;4.90;3.20;;;14.90;99.90;;;;;;467172;253;28983;-71
2023/09/19 03:19:37;;;;;;;4.63;2.90;;;14.90;99.90;;;;;;467170;253;28912;-71
2023/09/19 03:21:33;;;;;;;4.10;2.87;;;14.90;99.90;;;;;;466675;254;28821;-71
2023/09/19 03:23:34;;;;;;;4.47;2.80;;;14.90;99.90;;;;;;467166;254;28888;-71
2023/09/19 03:25:35;;;;;;;4.53;3.03;;;14.80;99.90;;;;;;467134;253;28624;-72
2023/09/19 03:27:36;;;;;;;5.13;2.80;;;14.80;99.90;;;;;;467134;253;28898;-71
2023/09/19 03:29:38;;;;;;;6.10;2.83;;;14.80;99.90;;;;;;467153;253;28822;-73
2023/09/19 03:31:39;;;;;;;6.67;2.53;;;14.80;99.90;;;;;;467151;254;28843;-71
2023/09/19 03:33:40;;;;;;;4.03;3.00;;;14.70;99.90;;;;;;467127;254;28869;-72
2023/09/19 03:35:41;;;;;;;3.90;2.70;;;14.70;99.90;;;;;;467150;253;28984;-71
2023/09/19 03:37:43;;;;;;;4.70;3.10;;;14.60;99.90;;;;;;467152;253;29348;-71
2023/09/19 03:39:44;;;;;;;5.57;2.50;;;14.60;99.90;;;;;;467170;253;29026;-72
2023/09/19 03:41:46;;;;;;;3.70;2.80;;;14.60;99.90;;;;;;467149;253;28514;-71
2023/09/19 03:43:46;;;;;;;7.67;3.30;;;14.70;99.90;;;;;;467134;253;28559;-71
2023/09/19 03:45:48;;;;;;;6.47;2.70;;;14.60;99.90;;;;;;467136;253;28474;-71
2023/09/19 03:47:49;;;;;;;5.93;2.80;;;14.60;99.90;;;;;;467156;253;28837;-71
2023/09/19 03:49:50;;;;;;;8.13;2.40;;;14.50;99.90;;;;;;467062;254;28585;-73
2023/09/19 03:51:51;;;;;;;4.27;2.93;;;14.50;99.90;;;;;;467127;254;28496;-71
2023/09/19 03:53:53;;;;;;;4.10;2.30;;;14.50;99.90;;;;;;467076;253;28560;-71
2023/09/19 03:55:55;;;;;;;6.20;2.80;;;14.50;99.90;;;;;;467113;253;28414;-74
2023/09/19 03:57:56;;;;;;;6.37;3.00;;;14.60;99.90;;;;;;467135;253;28340;-72
2023/09/19 03:59:57;;;;;;;6.53;3.00;;;14.50;99.90;;;;;;467083;253;28405;-71
2023/09/19 04:01:59;;;;;;;8.53;3.03;;;14.50;99.90;;;;;;467117;253;29515;-71
2023/09/19 04:04:07;;;;;;;6.07;2.80;;;14.50;99.90;;;;;;467124;253;29862;-71
2023/09/19 04:06:02;;;;;;;4.43;2.67;;;14.50;99.90;;;;;;466688;254;28962;-71
2023/09/19 04:08:02;;;;;;;3.50;2.60;;;14.50;99.90;;;;;;467099;254;29094;-72
2023/09/19 04:10:04;;;;;;;7.20;3.00;;;14.40;99.90;;;;;;467134;253;28541;-72
2023/09/19 04:12:05;;;;;;;6.63;2.70;;;14.40;99.90;;;;;;467137;253;28652;-72
2023/09/19 04:14:06;;;;;;;6.90;2.77;;;14.40;99.90;;;;;;467043;254;28864;-72
2023/09/19 04:16:07;;;;;;;5.50;2.80;;;14.40;99.90;;;;;;467180;254;28693;-71
2023/09/19 04:18:09;;;;;;;5.20;2.80;;;14.40;99.90;;;;;;467145;254;28651;-71
2023/09/19 04:20:12;;;;;;;5.33;2.57;;;14.30;99.90;;;;;;467139;254;28512;-71
2023/09/19 04:22:12;;;;;;;5.07;2.60;;;14.30;99.90;;;;;;467028;254;28366;-71
2023/09/19 04:24:13;;;;;;;6.00;2.63;;;14.30;99.90;;;;;;467106;254;28208;-72
2023/09/19 04:26:15;;;;;;;6.50;2.57;;;14.30;99.90;;;;;;467154;254;28872;-72
2023/09/19 04:28:15;;;;;;;5.00;2.47;;;14.30;99.90;;;;;;467040;250;29017;-71
2023/09/19 04:30:16;;;;;;;4.80;2.27;;;14.30;99.90;;;;;;467125;253;29013;-71
2023/09/19 04:32:17;;;;;;;6.90;3.00;;;14.30;99.90;;;;;;466980;254;28776;-71
2023/09/19 04:34:19;;;;;;;3.60;2.30;;;14.20;99.90;;;;;;467080;254;28577;-73
2023/09/19 04:36:20;;;;;;;3.77;2.43;;;14.20;99.90;;;;;;467128;253;28342;-71
2023/09/19 04:38:21;;;;;;;5.63;2.60;;;14.20;99.90;;;;;;467119;254;28548;-72
2023/09/19 04:40:24;;;;;;;3.27;2.30;;;14.20;99.90;;;;;;467132;253;28288;-71
2023/09/19 04:42:25;;;;;;;7.30;2.47;;;14.20;99.90;;;;;;467069;254;28405;-71
2023/09/19 04:44:25;;;;;;;5.33;2.70;;;14.20;99.90;;;;;;467083;254;28452;-71
2023/09/19 04:46:26;;;;;;;4.83;2.40;;;14.20;99.90;;;;;;467161;253;28496;-71
2023/09/19 04:48:29;;;;;;;2.13;1.77;;;14.20;99.90;;;;;;467102;253;28408;-71
2023/09/19 04:50:29;;;;;;;3.77;2.07;;;14.20;99.90;;;;;;467130;253;28428;-72
2023/09/19 04:52:30;;;;;;;5.50;2.40;;;14.20;99.90;;;;;;467164;253;29001;-71
2023/09/19 04:54:31;;;;;;;4.37;2.53;;;14.20;99.90;;;;;;467134;253;29033;-72
2023/09/19 04:56:33;;;;;;;5.30;2.30;;;14.20;99.90;;;;;;467089;249;28631;-71
2023/09/19 04:58:34;;;;;;;4.20;2.03;;;14.20;99.90;;;;;;467125;254;28325;-72
2023/09/19 05:00:35;;;;;;;4.80;2.67;;;14.20;99.90;;;;;;467179;253;28330;-73
2023/09/19 05:02:37;;;;;;;5.87;2.37;;;14.20;99.90;;;;;;467156;253;28412;-71
2023/09/19 05:04:38;;;;;;;3.23;2.30;;;14.20;99.90;;;;;;467104;253;28400;-71
2023/09/19 05:06:39;;;;;;;6.43;2.80;;;14.10;99.90;;;;;;467117;254;28297;-71
2023/09/19 05:08:40;;;;;;;8.40;2.67;;;14.20;99.90;;;;;;467168;253;28938;-71
2023/09/19 05:10:41;;;;;;;5.93;2.53;;;14.20;99.90;;;;;;467130;253;28210;-72
2023/09/19 05:12:45;;;;;;;4.13;2.70;;;14.20;99.90;;;;;;467145;253;28193;-71
2023/09/19 05:14:44;;;;;;;4.13;2.57;;;14.20;99.90;;;;;;467003;254;28719;-71
2023/09/19 05:16:45;;;;;;;2.60;2.40;;;14.20;99.90;;;;;;467150;253;28863;-71
2023/09/19 05:18:46;;;;;;;4.57;2.90;;;14.20;99.90;;;;;;467149;253;28962;-71
2023/09/19 05:20:48;;;;;;;5.33;3.70;;;14.20;99.90;;;;;;467147;253;28785;-72
2023/09/19 05:22:50;;;;;;;4.07;3.67;;;14.20;99.90;;;;;;467110;253;28483;-71
2023/09/19 05:24:51;;;;;;;8.23;4.50;;;14.30;99.90;;;;;;467091;253;28410;-71
2023/09/19 05:26:51;;;;;;;6.20;3.90;;;14.30;99.90;;;;;;467127;254;28401;-72
2023/09/19 05:28:52;;;;;;;7.00;4.00;;;14.40;99.90;;;;;;467167;253;28078;-72
2023/09/19 05:30:54;;;;;;;6.87;3.70;;;14.30;99.90;;;;;;467179;253;28473;-71
2023/09/19 05:32:55;;;;;;;7.30;3.60;;;14.30;99.90;;;;;;467144;254;28287;-72
2023/09/19 05:34:57;;;;;;;4.67;3.17;;;14.30;99.90;;;;;;467140;249;28273;-72
2023/09/19 05:36:58;;;;;;;4.47;2.80;;;14.30;99.90;;;;;;467151;253;28450;-72
2023/09/19 05:38:59;;;;;;;4.37;3.47;;;14.40;99.90;;;;;;467147;253;28796;-72
2023/09/19 05:41:00;;;;;;;5.87;3.20;;;14.40;99.90;;;;;;467130;253;29063;-72
2023/09/19 05:43:05;;;;;;;5.33;2.70;;;14.40;99.90;;;;;;467128;253;29841;-71
2023/09/19 05:45:02;;;;;;;8.57;3.00;;;14.40;99.90;;;;;;466916;254;28846;-71
2023/09/19 05:47:04;;;;;;;4.13;2.83;;;14.40;99.90;;;;;;467134;253;28433;-72
2023/09/19 05:49:05;;;;;;;4.60;3.20;;;14.50;99.90;;;;;;467142;253;28181;-71
2023/09/19 05:51:06;;;;;;;2.83;2.50;;;14.50;99.90;;;;;;467164;253;28433;-71
2023/09/19 05:53:08;;;;;;;7.20;2.90;;;14.50;99.90;;;;;;467180;253;28428;-71
2023/09/19 05:55:10;;;;;;;5.80;3.40;;;14.50;99.90;;;;;;467131;253;28529;-72
2023/09/19 05:57:12;;;;;;;9.53;3.10;;;14.50;99.90;;;;;;467103;254;28213;-72
2023/09/19 05:59:11;;;;;;;6.43;3.40;;;14.50;99.90;;;;;;467030;253;28714;-71
2023/09/19 06:01:13;;;;;;;6.83;3.07;;;14.60;99.90;;;;;;467152;253;28529;-71
2023/09/19 06:03:14;;;;;;;8.30;3.50;;;14.50;99.90;;;;;;467171;253;28452;-73
2023/09/19 06:05:15;;;;;;;5.80;3.67;;;14.60;99.90;;;;;;467168;253;28966;-71
2023/09/19 06:07:16;;;;;;;4.37;3.20;;;14.60;99.90;;;;;;467171;253;29232;-71
2023/09/19 06:09:18;;;;;;;6.00;3.13;;;14.60;99.90;;;;;;467077;254;28805;-73
2023/09/19 06:11:20;;;;;;;4.13;2.77;;;14.60;99.90;;;;;;467118;254;28343;-71
2023/09/19 06:13:20;;;;;;;5.87;3.23;;;14.70;99.90;;;;;;467142;253;28390;-73
2023/09/19 06:15:24;;;;;;;6.13;2.90;;;14.70;99.90;;;;;;467149;253;28526;-72
2023/09/19 06:17:23;;;;;;;5.37;4.00;;;14.70;99.90;;;;;;466978;254;28859;-72
2023/09/19 06:19:25;;;;;;;10.33;4.63;;;14.70;99.90;;;;;;467116;254;28598;-72
2023/09/19 06:21:26;;;;;;;8.87;4.70;;;14.70;99.90;;;;;;467090;254;28913;-71
2023/09/19 06:23:28;;;;;;;6.20;4.53;;;14.80;99.90;;;;;;467103;254;28506;-72
2023/09/19 06:25:28;;;;;;;8.77;4.73;;;14.80;99.90;;;;;;467018;254;28507;-71
2023/09/19 06:27:29;;;;;;;8.43;5.13;;;14.70;99.90;;;;;;467137;253;28880;-71
2023/09/19 06:29:30;;;;;;;5.57;4.50;;;14.80;99.90;;;;;;467182;253;29240;-73
2023/09/19 06:31:31;;;;;;;6.13;4.60;;;14.80;99.90;;;;;;467190;253;29152;-72
2023/09/19 06:33:33;;;;;;;7.27;5.13;;;14.90;99.90;;;;;;467182;253;29560;-72
2023/09/19 06:35:34;;;;;;;5.53;4.97;;;14.90;99.90;;;;;;467152;253;29003;-72
2023/09/19 06:37:35;;;;;;;6.17;5.10;;;14.90;99.90;;;;;;467151;253;28868;-71
2023/09/19 06:39:36;;;;;;;10.63;5.40;;;14.90;99.90;;;;;;467183;253;28777;-74
2023/09/19 06:41:39;;;;;;;8.43;4.63;;;15.00;99.90;;;;;;467167;253;28929;-71
2023/09/19 06:43:39;;;;;;;13.03;5.53;;;14.90;99.90;;;;;;467131;253;28651;-71
2023/09/19 06:45:40;;;;;;;8.90;5.50;;;15.00;99.90;;;;;;467022;254;28885;-71
2023/09/19 06:47:42;;;;;;;8.90;5.50;;;15.00;99.90;;;;;;467145;253;28862;-71
2023/09/19 06:49:45;;;;;;;5.80;5.20;;;15.00;99.90;;;;;;467165;253;28954;-72
2023/09/19 06:51:47;;;;;;;9.50;4.87;;;15.00;99.90;;;;;;467135;253;28972;-72
2023/09/19 06:53:48;;;;;;;8.50;5.53;;;15.00;99.90;;;;;;467070;253;28834;-71
2023/09/19 06:55:49;;;;;;;8.10;4.53;;;15.00;99.90;;;;;;467103;253;28950;-72
2023/09/19 06:57:51;;;;;;;8.03;4.87;;;15.10;99.90;;;;;;467184;253;29559;-73
2023/09/19 06:59:52;;;;;;;9.40;4.33;;;15.10;99.90;;;;;;467201;253;29410;-71
2023/09/19 07:01:53;;;;;;;8.07;4.30;;;15.10;99.90;;;;;;467150;254;29468;-71
2023/09/19 07:03:54;;;;;;;7.40;4.30;;;15.10;99.90;;;;;;467152;253;29343;-71
2023/09/19 07:05:56;;;;;;;7.97;4.23;;;15.10;99.90;;;;;;467041;254;28857;-72
2023/09/19 07:08:00;;;;;;;12.40;4.80;;;15.10;99.90;;;;;;467149;253;28870;-72
2023/09/19 07:09:58;;;;;;;4.20;3.70;;;15.00;99.90;;;;;;466815;249;28929;-71
2023/09/19 07:12:00;;;;;;;6.43;4.50;;;15.20;99.90;;;;;;467148;253;28865;-72
2023/09/19 07:14:01;;;;;;;12.20;4.50;;;15.20;99.90;;;;;;467133;253;28842;-71
2023/09/19 07:16:02;;;;;;;10.53;4.40;;;15.10;99.90;;;;;;467149;253;28857;-72
2023/09/19 07:18:03;;;;;;;8.10;4.17;;;15.10;99.90;;;;;;467156;253;29071;-72
2023/09/19 07:20:07;;;;;;;8.33;4.13;;;15.20;99.90;;;;;;467141;253;29453;-71
2023/09/19 07:22:08;;;;;;;10.53;4.47;;;15.20;99.90;;;;;;467128;253;28968;-71
2023/09/19 07:24:10;;;;;;;6.43;4.30;;;15.20;99.90;;;;;;467128;253;28957;-71
2023/09/19 07:26:11;;;;;;;8.67;3.70;;;15.10;99.90;;;;;;467148;253;28930;-73
2023/09/19 07:28:12;;;;;;;5.00;3.90;;;15.20;99.90;;;;;;466994;249;28835;-71
2023/09/19 07:30:14;;;;;;;3.90;3.50;;;15.10;99.90;;;;;;467074;254;29487;-72
2023/09/19 07:32:17;;;;;;;7.50;3.80;;;15.30;99.90;;;;;;467081;254;29328;-71
2023/09/19 07:34:16;;;;;;;7.43;4.00;;;15.40;99.90;;;;;;467052;254;29352;-71
2023/09/19 07:36:17;;;;;;;5.60;3.80;;;15.40;99.90;;;;;;467174;253;29469;-73
2023/09/19 07:38:18;;;;;;;6.80;4.37;;;15.40;99.90;;;;;;467141;253;28828;-71
2023/09/19 07:40:30;;;;;;;8.73;4.43;;;15.40;99.90;;;;;;467144;253;28872;-71
2023/09/19 07:42:21;;;;;;;8.87;4.30;;;15.40;99.90;;;;;;465994;254;28875;-71
2023/09/19 07:44:22;;;;;;;9.00;4.70;;;15.50;99.90;;;;;;467138;254;28854;-71
2023/09/19 07:46:24;;;;;;;8.47;4.53;;;15.50;99.90;;;;;;467158;254;28853;-73
2023/09/19 07:48:25;;;;;;;10.83;4.83;;;15.50;99.90;;;;;;467125;253;28954;-71
2023/09/19 07:50:26;;;;;;;6.27;4.43;;;15.50;99.90;;;;;;467152;253;29019;-71
2023/09/19 07:52:27;;;;;;;3.97;3.50;;;15.50;99.90;;;;;;467142;253;28959;-71
2023/09/19 07:54:30;;;;;;;11.53;5.03;;;15.50;99.90;;;;;;467150;249;29372;-71
2023/09/19 07:56:31;;;;;;;6.20;4.13;;;15.30;99.90;;;;;;467079;254;29572;-72
2023/09/19 07:58:31;;;;;;;8.80;4.67;;;15.10;99.90;;;;;;467052;254;29383;-72
2023/09/19 08:00:34;;;;;;;9.00;4.60;;;15.10;99.90;;;;;;467150;253;29475;-72
2023/09/19 08:02:33;;;;;;;9.00;5.00;;;15.20;99.90;;;;;;467041;254;28886;-72
2023/09/19 08:04:35;;;;;;;9.93;5.37;;;15.20;99.90;;;;;;467156;253;28878;-71
2023/09/19 08:06:38;;;;;;;8.97;4.90;;;15.20;99.90;;;;;;467150;253;28997;-72
2023/09/19 08:08:37;;;;;;;7.80;4.90;;;15.20;99.90;;;;;;467031;249;28922;-71
2023/09/19 08:10:42;;;;;;;6.07;4.00;;;15.00;99.90;;;;;;467167;254;28963;-71
2023/09/19 08:12:55;;;;;;;6.93;4.23;;;15.10;99.90;;;;;;466980;254;28894;-73
2023/09/19 08:14:44;;;;;;;17.73;4.17;;;15.10;99.90;;;;;;465706;254;28925;-71
2023/09/19 08:16:45;;;;;;;9.63;4.30;;;15.10;99.90;;;;;;467130;253;28941;-71
2023/09/19 08:18:46;;;;;;;11.40;4.20;;;15.10;99.90;;;;;;467149;253;28886;-71
2023/09/19 08:20:47;;;;;;;7.70;4.20;;;15.20;99.90;;;;;;467132;253;30663;-71
2023/09/19 08:22:49;;;;;;;9.90;3.97;;;15.20;99.90;;;;;;467143;253;29391;-71
2023/09/19 08:24:50;;;;;;;6.73;4.07;;;15.20;99.90;;;;;;467137;253;29353;-72
2023/09/19 08:26:51;;;;;;;6.50;4.23;;;15.30;99.90;;;;;;467137;254;29392;-71
2023/09/19 08:28:53;;;;;;;8.07;4.13;;;15.30;99.90;;;;;;467135;253;28946;-72
2023/09/19 08:30:54;;;;;;;9.13;4.47;;;15.40;99.90;;;;;;467151;253;28930;-71
2023/09/19 08:32:55;;;;;;;11.97;4.03;;;15.30;99.90;;;;;;467133;253;28985;-71
2023/09/19 08:34:56;;;;;;;6.43;3.70;;;15.40;99.90;;;;;;467133;253;28884;-71
2023/09/19 08:36:57;;;;;;;8.63;4.30;;;15.40;99.90;;;;;;467124;253;29040;-71
2023/09/19 08:38:59;;;;;;;6.27;4.00;;;15.50;99.90;;;;;;467143;249;28878;-71
2023/09/19 08:41:00;;;;;;;10.40;4.30;;;15.60;99.90;;;;;;467163;253;29303;-74
2023/09/19 08:43:01;;;;;;;10.70;4.17;;;15.70;99.90;;;;;;467147;253;28838;-71
2023/09/19 08:45:02;;;;;;;4.70;3.60;;;15.80;99.90;;;;;;467148;253;28968;-71
2023/09/19 08:47:04;;;;;;;7.60;3.43;;;15.90;99.90;;;;;;467114;253;28929;-71
2023/09/19 08:49:05;;;;;;;8.50;3.63;;;15.80;99.90;;;;;;467147;253;28887;-71
2023/09/19 08:51:06;;;;;;;7.50;3.17;;;15.90;99.90;;;;;;467135;253;28876;-72
2023/09/19 08:53:07;;;;;;;5.87;3.20;;;15.90;99.90;;;;;;467139;253;28898;-71
2023/09/19 08:55:10;;;;;;;8.53;3.30;;;15.90;99.90;;;;;;467125;254;29410;-71
2023/09/19 08:57:11;;;;;;;5.53;2.87;;;15.90;99.90;;;;;;467126;254;29502;-71
2023/09/19 08:59:11;;;;;;;6.73;2.80;;;15.90;99.90;;;;;;467103;254;29351;-71
2023/09/19 09:01:14;;;;;;;8.33;3.17;;;15.90;99.90;;;;;;467136;253;28912;-71
2023/09/19 09:03:14;;;;;;;5.70;3.17;;;15.90;99.90;;;;;;467031;253;28930;-71
2023/09/19 09:05:16;;;;;;;5.00;3.00;;;15.90;99.90;;;;;;467124;253;28879;-71
2023/09/19 09:07:17;;;;;;;8.73;3.10;;;15.90;99.90;;;;;;467125;253;28963;-72
2023/09/19 09:09:17;;;;;;;4.20;2.97;;;16.00;99.90;;;;;;467158;253;28897;-71
2023/09/19 09:11:19;;;;;;;3.67;2.60;;;16.10;99.90;;;;;;467164;253;29007;-71
2023/09/19 09:13:21;;;;;;;5.70;2.40;;;16.00;99.90;;;;;;467176;253;28824;-72
2023/09/19 09:15:22;;;;;;;5.20;2.57;;;16.00;99.90;;;;;;467098;253;28933;-72
2023/09/19 09:17:22;;;;;;;5.83;2.83;;;16.10;99.90;;;;;;467172;254;28899;-73
2023/09/19 09:19:24;;;;;;;10.47;3.20;;;16.10;99.90;;;;;;467163;253;29317;-71
2023/09/19 09:21:25;;;;;;;7.73;2.63;;;16.00;99.90;;;;;;467157;253;29375;-72
2023/09/19 09:23:29;;;;;;;9.13;2.80;;;16.00;99.90;;;;;;467141;253;31287;-71
2023/09/19 09:25:27;;;;;;;5.47;2.40;;;15.90;99.90;;;;;;467124;253;28829;-71
2023/09/19 09:27:29;;;;;;;4.10;2.43;;;15.80;99.90;;;;;;467158;253;28963;-71
2023/09/19 09:29:30;;;;;;;3.17;2.10;;;15.80;99.90;;;;;;467178;253;28832;-71
2023/09/19 09:31:31;;;;;;;7.57;2.60;;;15.80;99.90;;;;;;467144;253;28878;-71
2023/09/19 09:33:32;;;;;;;6.77;2.33;;;15.80;99.90;;;;;;467128;253;29243;-71
2023/09/19 09:35:35;;;;;;;5.63;2.60;;;15.80;99.90;;;;;;467122;254;28845;-72
2023/09/19 09:37:38;;;;;;;5.30;2.53;;;15.80;99.90;;;;;;467087;254;28903;-71
2023/09/19 09:39:36;;;;;;;7.00;2.80;;;15.80;99.90;;;;;;466986;253;28951;-71
2023/09/19 09:41:39;;;;;;;5.70;2.70;;;15.90;99.90;;;;;;467105;253;28953;-71
2023/09/19 09:43:41;;;;;;;2.83;2.10;;;16.00;99.90;;;;;;467080;253;29428;-73
2023/09/19 09:45:48;;;;;;;4.63;2.47;;;16.10;99.90;;;;;;467069;254;29402;-71
2023/09/19 09:47:41;;;;;;;6.83;2.90;;;16.10;99.90;;;;;;466620;254;29577;-71
2023/09/19 09:49:50;;;;;;;4.40;2.23;;;16.10;99.90;;;;;;467127;253;29329;-71
2023/09/19 09:51:47;;;;;;;4.37;2.27;;;16.10;99.90;;;;;;466696;254;28856;-71
2023/09/19 09:53:45;;;;;;;5.10;2.23;;;16.10;99.90;;;;;;466966;254;28991;-72
2023/09/19 09:55:46;;;;;;;9.30;2.80;;;16.10;99.90;;;;;;467123;253;28904;-71
2023/09/19 09:57:47;;;;;;;2.30;2.10;;;16.20;99.90;;;;;;467121;253;28972;-71
2023/09/19 09:59:53;;;;;;;5.40;2.20;;;16.30;99.90;;;;;;467142;250;28843;-71
2023/09/19 10:01:50;;;;;;;4.87;2.37;;;16.30;99.90;;;;;;466776;254;28897;-71
2023/09/19 10:03:53;;;;;;;4.93;2.17;;;16.40;99.90;;;;;;467141;253;28864;-71
2023/09/19 10:05:55;;;;;;;7.10;2.63;;;16.70;99.90;;;;;;467064;254;28824;-71
2023/09/19 10:07:54;;;;;;;7.33;2.43;;;17.00;99.90;;;;;;467036;254;29544;-71
2023/09/19 10:10:04;;;;;;;6.13;2.27;;;17.20;99.90;;;;;;467156;253;29492;-74
2023/09/19 10:11:57;;;;;;;4.37;2.43;;;17.40;99.90;;;;;;466593;254;29488;-72
2023/09/19 10:13:58;;;;;;;4.17;2.37;;;17.50;99.90;;;;;;467149;253;29339;-72
2023/09/19 10:16:00;;;;;;;3.60;1.83;;;17.40;99.90;;;;;;467124;253;28827;-73
2023/09/19 10:18:00;;;;;;;4.30;2.20;;;17.30;99.90;;;;;;467141;253;28964;-72
2023/09/19 10:20:22;;;;;;;7.73;2.10;;;16.90;99.90;;;;;;467155;254;28932;-74
2023/09/19 10:22:04;;;;;;;5.13;2.00;;;17.00;99.90;;;;;;465803;254;28992;-73
2023/09/19 10:24:07;;;;;;;4.17;1.93;;;17.10;99.90;;;;;;467102;254;28964;-73
2023/09/19 10:26:05;;;;;;;6.33;2.03;;;17.30;99.90;;;;;;466955;254;28983;-72
2023/09/19 10:28:10;;;;;;;5.97;1.87;;;17.30;99.90;;;;;;467037;253;29311;-73
2023/09/19 10:30:08;;;;;;;6.40;2.30;;;17.10;99.90;;;;;;466784;254;28976;-75